Bull Shoals, Arkansas
Current Conditions -  °F | °C
As of 1:53 AM on Tuesday 27 Jan 2015 (Local Time) from KBPK Reporting Station
Clear Clear  
Wind Chill: 43°   Ceiling: Unl
Heat Index: 43°   Visibility: 10mi
Dew Point: 34°   Wind: 3mph
Humidity: 71%   Direction: 300°WNW
Pressure: 29.99"   Gusts: NA
Location:  36.38°N, 92.58°W
Report Text: KBPK 270753Z AUTO 30003KT 10SM CLR 06/01 A2999 RMK AO2 SLP156 T00610011
Loading
Personal Weather Stations






























Interactive Weather Map New forecast layout! Learn more

10-Day Weather Forecast

Advertisements
Track Severe Weather on mobile